Terminal Aerodrome Forecast
Issued by NWS Grand Rapids, MI

Home | Current Version | Previous Version | Text Only | Print | Product List | Glossary On
Versions: 1 2 3 4 5 6 7 8 9 10 11 12 13 14
000
FTUS43 KGRR 180500
TAFGRR
TAF
KGRR 180540Z 1806/1906 29005KT P6SM BKN200
     FM180800 33005KT P6SM VCSH OVC040
     FM181400 31012KT P6SM SCT035=

USA.gov is the U.S. government's official web portal to all federal, state and local government web resources and services.